Time;durP1;ratioP1;P1;durP2;ratioP2;P2;SDS_P1;SDS_P2;PMS_P1;PMS_P2;Temp;Humidity;BMP_temperature;BMP_pressure;BME280_temperature;BME280_humidity;BME280_pressure;Samples;Min_cycle;Max_cycle;Signal;HPM_P1;HPM_P2
2023/05/16 00:01:38;;;;;;;7.53;5.80;;;16.00;93.10;;;;;;5059004;28;20037;-68
2023/05/16 00:04:04;;;;;;;6.90;5.60;;;16.00;93.10;;;;;;5052682;28;20041;-68
2023/05/16 00:06:30;;;;;;;6.78;4.72;;;16.00;93.20;;;;;;5035915;28;20487;-68
2023/05/16 00:08:56;;;;;;;8.30;5.25;;;16.00;93.20;;;;;;5046479;28;20537;-69
2023/05/16 00:11:22;;;;;;;8.70;5.63;;;16.00;93.20;;;;;;5047517;28;20149;-68
2023/05/16 00:13:48;;;;;;;5.88;5.15;;;16.10;93.20;;;;;;5048292;28;20500;-68
2023/05/16 00:16:14;;;;;;;6.75;5.28;;;16.10;93.20;;;;;;5048000;28;20045;-69
2023/05/16 00:18:39;;;;;;;6.53;5.35;;;16.00;93.30;;;;;;5044234;28;20457;-68
2023/05/16 00:21:05;;;;;;;9.20;5.20;;;16.00;93.30;;;;;;5046543;28;20072;-69
2023/05/16 00:23:32;;;;;;;6.93;5.90;;;16.10;93.30;;;;;;5034180;28;20037;-69
2023/05/16 00:25:57;;;;;;;7.75;5.78;;;16.10;93.40;;;;;;5043514;28;20407;-68
2023/05/16 00:28:23;;;;;;;6.78;5.90;;;16.10;93.50;;;;;;5045711;28;20067;-68
2023/05/16 00:30:49;;;;;;;8.13;6.22;;;16.00;93.40;;;;;;5029588;28;20689;-68
2023/05/16 00:33:14;;;;;;;7.68;5.88;;;16.00;93.50;;;;;;5048763;28;20047;-69
2023/05/16 00:35:40;;;;;;;7.13;5.38;;;16.00;93.80;;;;;;5063907;28;20100;-68
2023/05/16 00:38:06;;;;;;;9.07;6.32;;;15.90;93.80;;;;;;5039995;28;20365;-69
2023/05/16 00:40:31;;;;;;;9.00;6.10;;;15.90;93.80;;;;;;5047800;28;20072;-69
2023/05/16 00:42:57;;;;;;;7.70;6.57;;;16.00;93.90;;;;;;5040321;28;20410;-69
2023/05/16 00:45:23;;;;;;;8.85;6.68;;;15.90;94.10;;;;;;5044070;28;20518;-68
2023/05/16 00:47:50;;;;;;;8.60;5.95;;;15.90;94.10;;;;;;5038855;28;20037;-68
2023/05/16 00:50:16;;;;;;;8.52;6.43;;;15.80;94.30;;;;;;5039325;28;20048;-69
2023/05/16 00:52:42;;;;;;;11.50;6.78;;;15.80;94.20;;;;;;5036324;28;20037;-68
2023/05/16 00:55:11;;;;;;;7.63;6.00;;;15.80;94.20;;;;;;5045632;28;20106;-69
2023/05/16 00:57:37;;;;;;;8.60;7.30;;;15.80;94.30;;;;;;5048863;28;20409;-69
2023/05/16 01:00:10;;;;;;;7.80;6.55;;;15.80;94.30;;;;;;5043556;28;20051;-69
2023/05/16 01:02:36;;;;;;;9.93;5.97;;;15.80;94.40;;;;;;5041637;28;20087;-70
2023/05/16 01:05:07;;;;;;;9.50;7.20;;;15.90;94.40;;;;;;5029503;28;20064;-68
2023/05/16 01:07:33;;;;;;;10.13;7.43;;;15.90;94.40;;;;;;5031294;28;20118;-66
2023/05/16 01:09:59;;;;;;;9.75;8.07;;;15.80;94.50;;;;;;5056873;28;20065;-65
2023/05/16 01:12:37;;;;;;;9.15;6.97;;;15.80;94.70;;;;;;5071362;28;20021;-66
2023/05/16 01:15:13;;;;;;;9.05;6.45;;;15.80;95.00;;;;;;5060166;28;20073;-66
2023/05/16 01:18:04;;;;;;;9.45;7.22;;;15.70;94.90;;;;;;5046147;28;20102;-66
2023/05/16 01:20:29;;;;;;;10.05;7.50;;;15.70;94.90;;;;;;5046745;28;20059;-66
2023/05/16 01:23:13;;;;;;;11.73;8.50;;;15.70;94.90;;;;;;5032058;28;20120;-66
2023/05/16 01:26:13;;;;;;;10.15;8.43;;;15.60;95.00;;;;;;5046055;28;20041;-66
2023/05/16 01:28:40;;;;;;;11.95;8.50;;;15.60;95.00;;;;;;5035856;28;20060;-65
2023/05/16 01:31:06;;;;;;;11.18;8.00;;;15.50;95.30;;;;;;5058883;28;20033;-66
2023/05/16 01:33:32;;;;;;;11.82;9.30;;;15.50;95.40;;;;;;5057303;28;20049;-66
2023/05/16 01:36:02;;;;;;;11.15;8.68;;;15.50;95.40;;;;;;5033256;28;20033;-66
2023/05/16 01:39:01;;;;;;;11.50;9.25;;;15.50;95.60;;;;;;5065912;28;20048;-66
2023/05/16 01:41:40;;;;;;;12.48;9.05;;;15.50;95.60;;;;;;5044614;28;20066;-66
2023/05/16 01:44:16;;;;;;;12.40;9.63;;;15.40;95.90;;;;;;5061835;28;20033;-66
2023/05/16 01:46:45;;;;;;;12.07;9.15;;;15.20;95.90;;;;;;5064570;28;20029;-66
2023/05/16 01:49:26;;;;;;;12.07;9.23;;;15.20;96.00;;;;;;5066440;28;20071;-66
2023/05/16 01:51:59;;;;;;;11.18;8.55;;;15.20;96.10;;;;;;5063750;28;20088;-65
2023/05/16 01:54:28;;;;;;;17.23;9.95;;;15.20;96.10;;;;;;5068247;28;20041;-65
2023/05/16 01:56:55;;;;;;;11.82;8.90;;;15.10;96.20;;;;;;5065748;28;20033;-65
2023/05/16 01:59:23;;;;;;;10.88;8.52;;;15.10;96.20;;;;;;5069155;28;20335;-65
2023/05/16 02:01:48;;;;;;;11.40;8.23;;;15.10;96.10;;;;;;5074077;28;20051;-66
2023/05/16 02:04:14;;;;;;;11.23;8.05;;;15.10;96.10;;;;;;5070073;28;20045;-66
2023/05/16 02:06:41;;;;;;;14.40;8.40;;;15.00;96.00;;;;;;5071212;28;20049;-65
2023/05/16 02:09:07;;;;;;;18.58;9.63;;;15.00;96.00;;;;;;5067895;28;20041;-66
2023/05/16 02:11:33;;;;;;;10.35;8.38;;;14.90;96.20;;;;;;5060655;28;20036;-66
2023/05/16 02:13:58;;;;;;;12.48;9.48;;;14.80;96.20;;;;;;5068469;28;20045;-66
2023/05/16 02:16:24;;;;;;;12.95;9.32;;;14.80;96.30;;;;;;5066537;28;20045;-65
2023/05/16 02:18:49;;;;;;;12.07;9.18;;;14.80;96.30;;;;;;5063556;28;20077;-65
2023/05/16 02:21:15;;;;;;;11.02;8.52;;;14.80;96.30;;;;;;5059187;28;20045;-66
2023/05/16 02:23:41;;;;;;;15.60;9.52;;;14.80;96.30;;;;;;5052699;28;20033;-65
2023/05/16 02:26:06;;;;;;;13.52;9.10;;;14.90;96.20;;;;;;5056548;28;20049;-65
2023/05/16 02:28:32;;;;;;;18.65;10.18;;;14.80;96.20;;;;;;5056261;28;20025;-65
2023/05/16 02:30:59;;;;;;;11.60;9.25;;;14.80;96.10;;;;;;5059613;28;20045;-67
2023/05/16 02:33:26;;;;;;;13.80;9.52;;;14.80;96.10;;;;;;5070111;28;20055;-65
2023/05/16 02:35:52;;;;;;;12.70;9.73;;;14.80;96.00;;;;;;5070212;28;20093;-65
2023/05/16 02:38:19;;;;;;;12.35;9.30;;;14.70;95.90;;;;;;5069960;28;20040;-65
2023/05/16 02:40:48;;;;;;;12.30;8.63;;;14.80;95.90;;;;;;5069585;28;20037;-65
2023/05/16 02:43:14;;;;;;;11.00;8.80;;;14.80;95.90;;;;;;5071714;28;20044;-66
2023/05/16 02:45:40;;;;;;;12.90;9.07;;;14.70;95.70;;;;;;5068155;28;20425;-65
2023/05/16 02:48:06;;;;;;;15.40;8.65;;;14.70;95.70;;;;;;5067296;28;20048;-65
2023/05/16 02:50:33;;;;;;;12.98;8.63;;;14.70;95.70;;;;;;5066108;28;21565;-65
2023/05/16 02:53:01;;;;;;;10.00;8.18;;;14.60;95.70;;;;;;5063690;28;20044;-65
2023/05/16 02:55:27;;;;;;;10.07;8.20;;;14.60;95.70;;;;;;5057987;28;20037;-66
2023/05/16 02:57:52;;;;;;;13.93;9.57;;;14.70;95.70;;;;;;5069375;28;20056;-66
2023/05/16 03:00:18;;;;;;;10.60;8.02;;;14.60;95.60;;;;;;5072730;28;20056;-66
2023/05/16 03:02:44;;;;;;;11.73;8.57;;;14.60;95.70;;;;;;5066178;28;20060;-66
2023/05/16 03:05:10;;;;;;;13.25;8.38;;;14.60;95.80;;;;;;5069402;28;20051;-66
2023/05/16 03:07:36;;;;;;;10.40;8.02;;;14.60;95.80;;;;;;5063051;28;20037;-67
2023/05/16 03:10:03;;;;;;;13.55;9.35;;;14.60;95.70;;;;;;5064546;28;20033;-65
2023/05/16 03:12:29;;;;;;;12.70;8.82;;;14.60;95.80;;;;;;5064508;28;20029;-65
2023/05/16 03:14:54;;;;;;;12.60;9.50;;;14.50;95.60;;;;;;5064967;28;20056;-65
2023/05/16 03:17:20;;;;;;;12.30;9.13;;;14.50;95.70;;;;;;5066480;28;20097;-65
2023/05/16 03:19:45;;;;;;;12.63;8.43;;;14.50;95.80;;;;;;5076563;28;20045;-68
2023/05/16 03:22:11;;;;;;;14.30;9.50;;;14.50;95.90;;;;;;5071207;28;20025;-70
2023/05/16 03:24:37;;;;;;;13.82;9.77;;;14.40;95.70;;;;;;5068196;28;20045;-71
2023/05/16 03:27:03;;;;;;;12.20;9.05;;;14.40;95.80;;;;;;5073526;28;20049;-70
2023/05/16 03:29:29;;;;;;;12.23;8.77;;;14.30;95.80;;;;;;5091200;28;20063;-68
2023/05/16 03:31:55;;;;;;;12.90;9.48;;;14.30;95.80;;;;;;5093845;28;20062;-69
2023/05/16 03:34:21;;;;;;;14.63;9.70;;;14.30;95.80;;;;;;5098824;28;20032;-69
2023/05/16 03:36:48;;;;;;;14.98;10.18;;;14.30;95.90;;;;;;5092593;28;20025;-70
2023/05/16 03:39:15;;;;;;;18.83;10.82;;;14.30;95.90;;;;;;5092718;28;20065;-69
2023/05/16 03:41:40;;;;;;;14.77;10.05;;;14.20;96.00;;;;;;5086240;28;20039;-70
2023/05/16 03:44:06;;;;;;;12.75;10.13;;;14.20;96.00;;;;;;5092041;28;20088;-69
2023/05/16 03:46:32;;;;;;;13.27;9.65;;;14.10;96.10;;;;;;5092204;28;20090;-69
2023/05/16 03:48:58;;;;;;;14.95;10.60;;;14.10;96.20;;;;;;5077990;28;20050;-69
2023/05/16 03:51:23;;;;;;;13.68;11.25;;;14.10;96.20;;;;;;5093861;28;20055;-69
2023/05/16 03:53:49;;;;;;;15.32;10.43;;;14.10;96.30;;;;;;5093487;28;20025;-69
2023/05/16 03:56:15;;;;;;;14.00;10.95;;;14.10;96.20;;;;;;5073793;28;20029;-67
2023/05/16 03:58:40;;;;;;;14.40;10.02;;;14.10;96.30;;;;;;5079499;28;20033;-70
2023/05/16 04:01:06;;;;;;;14.70;10.32;;;14.10;96.30;;;;;;5093364;28;20067;-67
2023/05/16 04:03:32;;;;;;;14.73;10.88;;;14.10;96.30;;;;;;5081676;28;20048;-69
2023/05/16 04:05:58;;;;;;;12.70;9.75;;;14.00;96.30;;;;;;5080508;28;20046;-68
2023/05/16 04:08:24;;;;;;;16.42;11.10;;;14.10;96.40;;;;;;5081976;28;20096;-69
2023/05/16 04:10:50;;;;;;;12.95;8.85;;;14.00;96.40;;;;;;5086388;28;20777;-69
2023/05/16 04:13:16;;;;;;;16.80;10.70;;;14.00;96.50;;;;;;5090657;28;20038;-69
2023/05/16 04:15:41;;;;;;;13.30;10.23;;;14.00;96.50;;;;;;5093368;28;20040;-69
2023/05/16 04:18:08;;;;;;;15.95;10.30;;;14.00;96.60;;;;;;5084450;28;20035;-69
2023/05/16 04:20:35;;;;;;;16.17;11.93;;;13.90;96.50;;;;;;5066438;28;20032;-68
2023/05/16 04:23:01;;;;;;;13.90;10.63;;;13.90;96.50;;;;;;5079332;28;20107;-69
2023/05/16 04:25:26;;;;;;;17.08;10.95;;;13.90;96.50;;;;;;5094656;28;20051;-69
2023/05/16 04:27:52;;;;;;;12.95;10.45;;;13.90;96.60;;;;;;5095229;28;20075;-68
2023/05/16 04:30:18;;;;;;;14.85;10.35;;;13.90;96.70;;;;;;5096247;28;20122;-68
2023/05/16 04:32:44;;;;;;;14.85;10.40;;;13.90;96.70;;;;;;5102045;28;20047;-69
2023/05/16 04:35:09;;;;;;;16.85;12.38;;;13.80;96.70;;;;;;5088392;28;20040;-69
2023/05/16 04:37:36;;;;;;;13.45;10.75;;;13.80;96.70;;;;;;5087221;28;20048;-68
2023/05/16 04:40:02;;;;;;;16.92;12.55;;;13.80;96.80;;;;;;5088361;28;20028;-69
2023/05/16 04:42:27;;;;;;;16.35;12.48;;;13.90;96.80;;;;;;5084835;28;20024;-69
2023/05/16 04:44:53;;;;;;;16.70;12.57;;;13.90;96.80;;;;;;5086698;28;20173;-69
2023/05/16 04:47:18;;;;;;;20.27;12.68;;;13.80;96.80;;;;;;5095223;28;20036;-69
2023/05/16 04:49:44;;;;;;;17.52;12.32;;;13.80;96.80;;;;;;5091635;28;20036;-69
2023/05/16 04:52:10;;;;;;;17.17;11.48;;;13.80;96.80;;;;;;5091623;28;20027;-69
2023/05/16 04:54:38;;;;;;;16.73;11.80;;;13.80;96.70;;;;;;5065919;28;20040;-69
2023/05/16 04:57:04;;;;;;;19.80;11.57;;;13.80;96.80;;;;;;5091646;28;20049;-69
2023/05/16 04:59:29;;;;;;;12.70;9.90;;;13.80;96.70;;;;;;5075096;28;20128;-69
2023/05/16 05:01:55;;;;;;;12.00;10.02;;;13.80;96.70;;;;;;5078410;28;20036;-70
2023/05/16 05:04:21;;;;;;;15.55;12.10;;;13.80;96.70;;;;;;5056413;28;20572;-69
2023/05/16 05:06:47;;;;;;;15.45;11.02;;;13.80;96.70;;;;;;5078790;28;20036;-68
2023/05/16 05:09:12;;;;;;;16.45;12.57;;;13.80;96.70;;;;;;5090957;28;20051;-68
2023/05/16 05:11:38;;;;;;;16.20;11.98;;;13.70;96.80;;;;;;5087815;28;20055;-68
2023/05/16 05:14:04;;;;;;;16.15;11.38;;;13.70;96.70;;;;;;5074686;28;20068;-68
2023/05/16 05:16:30;;;;;;;17.98;12.95;;;13.70;96.70;;;;;;5089656;28;20020;-68
2023/05/16 05:18:55;;;;;;;17.60;12.05;;;13.70;96.70;;;;;;5091717;28;20013;-68
2023/05/16 05:21:24;;;;;;;16.98;10.82;;;13.70;96.70;;;;;;5092161;28;20033;-68
2023/05/16 05:23:49;;;;;;;17.35;12.10;;;13.70;96.70;;;;;;5085169;28;20048;-68
2023/05/16 05:26:15;;;;;;;16.20;11.45;;;13.70;96.70;;;;;;5083284;28;20157;-68
2023/05/16 05:28:41;;;;;;;17.15;10.70;;;13.70;96.70;;;;;;5087196;28;20024;-68
2023/05/16 05:31:07;;;;;;;16.65;10.90;;;13.70;96.70;;;;;;5082791;28;20035;-67
2023/05/16 05:33:33;;;;;;;18.45;12.95;;;13.70;96.60;;;;;;5066207;28;20048;-68
2023/05/16 05:35:58;;;;;;;17.92;11.88;;;13.60;96.70;;;;;;5061399;28;20044;-68
2023/05/16 05:38:24;;;;;;;19.42;12.98;;;13.60;96.80;;;;;;5069128;28;20146;-68
2023/05/16 05:40:50;;;;;;;19.48;13.13;;;13.60;96.80;;;;;;5085525;28;20078;-68
2023/05/16 05:43:16;;;;;;;15.15;11.85;;;13.60;96.90;;;;;;5096082;28;20029;-68
2023/05/16 05:45:42;;;;;;;18.90;12.23;;;13.60;96.90;;;;;;5085496;28;20052;-71
2023/05/16 05:48:09;;;;;;;15.80;12.45;;;13.60;96.90;;;;;;5092041;28;20032;-70
2023/05/16 05:50:35;;;;;;;17.73;13.18;;;13.60;96.90;;;;;;5085231;28;20052;-70
2023/05/16 05:53:01;;;;;;;17.17;12.77;;;13.70;96.90;;;;;;5079410;28;20028;-71
2023/05/16 05:55:26;;;;;;;18.52;13.07;;;13.60;96.80;;;;;;5083151;28;20041;-70
2023/05/16 05:57:52;;;;;;;17.90;12.55;;;13.70;96.80;;;;;;5085322;28;20033;-70
2023/05/16 06:00:18;;;;;;;17.42;12.65;;;13.70;96.70;;;;;;5077259;28;20041;-70
2023/05/16 06:02:43;;;;;;;15.93;11.50;;;13.70;96.60;;;;;;5086929;28;20029;-70
2023/05/16 06:05:09;;;;;;;13.57;10.18;;;13.60;96.70;;;;;;5078630;28;20029;-70
2023/05/16 06:07:35;;;;;;;12.52;9.65;;;13.60;96.60;;;;;;5078203;28;20037;-71
2023/05/16 06:10:03;;;;;;;12.68;9.32;;;13.70;96.50;;;;;;5086268;28;20060;-70
2023/05/16 06:12:29;;;;;;;15.38;8.38;;;13.60;96.70;;;;;;5095288;28;20048;-70
2023/05/16 06:14:55;;;;;;;10.23;7.97;;;13.60;96.60;;;;;;5081757;28;20123;-71
2023/05/16 06:17:20;;;;;;;9.95;7.55;;;13.60;96.50;;;;;;5079003;28;20048;-70
2023/05/16 06:19:49;;;;;;;10.68;7.70;;;13.60;96.40;;;;;;5086632;28;20075;-70
2023/05/16 06:22:15;;;;;;;15.50;8.20;;;13.60;96.30;;;;;;5082233;28;20025;-70
2023/05/16 06:24:40;;;;;;;10.57;7.47;;;13.60;96.30;;;;;;5075642;28;20075;-70
2023/05/16 06:27:06;;;;;;;12.43;8.05;;;13.70;96.20;;;;;;5074797;28;20049;-70
2023/05/16 06:29:32;;;;;;;11.85;7.43;;;13.80;96.10;;;;;;5049941;28;20033;-70
2023/05/16 06:31:57;;;;;;;9.80;7.10;;;13.70;96.00;;;;;;5064043;28;20452;-70
2023/05/16 06:34:26;;;;;;;11.10;7.32;;;13.80;96.00;;;;;;5035085;28;20061;-70
2023/05/16 06:36:53;;;;;;;9.93;6.78;;;13.80;95.90;;;;;;5026767;28;20044;-75
2023/05/16 06:39:18;;;;;;;14.73;6.75;;;13.80;95.80;;;;;;5045507;28;20537;-71
2023/05/16 06:41:44;;;;;;;8.05;6.60;;;13.80;95.70;;;;;;5050162;28;20127;-70
2023/05/16 06:44:10;;;;;;;11.57;6.90;;;13.90;95.70;;;;;;5057372;28;20123;-72
2023/05/16 06:46:37;;;;;;;9.95;6.43;;;14.00;95.60;;;;;;5043196;28;20090;-71
2023/05/16 06:49:03;;;;;;;8.98;6.82;;;14.00;95.50;;;;;;5050596;28;20029;-71
2023/05/16 06:51:29;;;;;;;11.18;6.47;;;14.10;95.50;;;;;;5044856;28;20490;-70
2023/05/16 06:53:55;;;;;;;10.75;5.93;;;14.10;95.30;;;;;;5052122;28;20051;-70
2023/05/16 06:56:21;;;;;;;9.88;6.38;;;14.10;95.30;;;;;;5048726;28;20037;-69
2023/05/16 06:58:48;;;;;;;8.95;5.85;;;14.20;95.20;;;;;;5049082;28;20080;-70
2023/05/16 07:01:14;;;;;;;8.85;6.57;;;14.20;95.10;;;;;;5045619;28;20051;-70
2023/05/16 07:03:40;;;;;;;10.57;5.97;;;14.10;95.10;;;;;;5045142;28;20037;-71
2023/05/16 07:06:05;;;;;;;11.95;6.38;;;14.10;95.00;;;;;;5027805;28;20039;-71
2023/05/16 07:08:31;;;;;;;8.52;6.40;;;14.10;95.00;;;;;;5031971;28;20061;-70
2023/05/16 07:10:57;;;;;;;10.10;5.97;;;14.10;95.00;;;;;;5043402;28;20460;-70
2023/05/16 07:13:23;;;;;;;9.52;6.40;;;14.20;95.00;;;;;;5048112;28;20211;-70
2023/05/16 07:15:48;;;;;;;11.10;6.55;;;14.20;94.90;;;;;;5049608;28;20578;-70
2023/05/16 07:18:14;;;;;;;24.75;8.05;;;14.30;94.90;;;;;;5038601;28;20096;-72
2023/05/16 07:20:39;;;;;;;10.70;5.68;;;14.30;94.90;;;;;;5049563;28;20441;-71
2023/05/16 07:23:05;;;;;;;9.13;6.03;;;14.30;94.80;;;;;;5049010;28;20040;-70
2023/05/16 07:25:31;;;;;;;7.10;4.25;;;14.30;94.70;;;;;;5048354;28;20487;-70
2023/05/16 07:27:56;;;;;;;7.07;4.68;;;14.40;94.70;;;;;;5056395;28;20116;-71
2023/05/16 07:30:22;;;;;;;14.27;5.30;;;14.40;94.60;;;;;;5051906;28;20040;-71
2023/05/16 07:32:48;;;;;;;8.82;5.07;;;14.50;94.60;;;;;;5056475;28;20049;-71
2023/05/16 07:35:14;;;;;;;11.90;5.45;;;14.60;94.50;;;;;;5050294;28;20112;-70
2023/05/16 07:37:41;;;;;;;10.13;5.07;;;14.70;94.40;;;;;;5059433;28;20037;-70
2023/05/16 07:40:07;;;;;;;8.05;4.75;;;14.70;94.30;;;;;;5049757;28;20048;-71
2023/05/16 07:42:33;;;;;;;7.63;5.10;;;14.80;94.30;;;;;;5049242;28;20040;-71
2023/05/16 07:44:58;;;;;;;7.65;3.83;;;14.80;94.00;;;;;;5048057;28;20464;-70
2023/05/16 07:47:24;;;;;;;5.35;3.85;;;14.80;93.90;;;;;;5046903;28;20530;-72
2023/05/16 07:49:50;;;;;;;7.57;3.60;;;14.90;93.80;;;;;;5048989;28;20140;-71
2023/05/16 07:52:16;;;;;;;5.10;3.80;;;14.90;93.60;;;;;;5047619;28;20043;-71
2023/05/16 07:54:41;;;;;;;13.65;4.70;;;14.90;93.80;;;;;;5047878;28;20045;-71
2023/05/16 07:57:07;;;;;;;7.40;3.50;;;15.00;93.70;;;;;;5031073;28;20563;-69
2023/05/16 07:59:33;;;;;;;6.55;4.40;;;15.00;93.60;;;;;;5066605;28;20040;-70
2023/05/16 08:01:59;;;;;;;10.57;4.38;;;15.00;93.60;;;;;;5047045;28;20349;-71
2023/05/16 08:04:24;;;;;;;5.95;3.78;;;15.10;93.60;;;;;;5046804;28;20482;-71
2023/05/16 08:06:50;;;;;;;6.53;3.53;;;15.10;93.30;;;;;;5043826;28;20401;-71
2023/05/16 08:09:15;;;;;;;5.65;2.97;;;15.00;93.00;;;;;;5044090;28;20563;-71
2023/05/16 08:11:44;;;;;;;5.68;3.53;;;14.90;93.10;;;;;;5044806;28;20128;-70
2023/05/16 08:14:10;;;;;;;8.05;3.78;;;15.00;92.80;;;;;;5038453;28;20104;-70
2023/05/16 08:16:37;;;;;;;6.35;3.40;;;14.90;92.90;;;;;;5043585;28;20049;-70
2023/05/16 08:19:02;;;;;;;6.97;2.85;;;14.90;93.00;;;;;;5048758;28;20033;-70
2023/05/16 08:21:29;;;;;;;5.00;2.50;;;14.90;92.90;;;;;;5047242;28;20029;-70
2023/05/16 08:23:55;;;;;;;7.00;2.88;;;14.90;92.80;;;;;;5044277;28;20037;-71
2023/05/16 08:26:20;;;;;;;4.97;2.67;;;14.80;92.80;;;;;;5045855;28;20045;-70
2023/05/16 08:28:46;;;;;;;3.90;2.92;;;14.80;92.80;;;;;;5047128;28;20033;-70
2023/05/16 08:31:12;;;;;;;6.28;3.75;;;14.80;92.70;;;;;;5045691;28;20062;-70
2023/05/16 08:33:38;;;;;;;4.88;3.05;;;14.70;92.60;;;;;;5048523;28;20043;-69
2023/05/16 08:36:04;;;;;;;6.90;3.20;;;14.60;92.80;;;;;;5047986;28;20086;-70
2023/05/16 08:38:29;;;;;;;6.55;3.20;;;14.60;92.80;;;;;;5040616;28;20040;-69
2023/05/16 08:40:55;;;;;;;3.72;2.85;;;14.50;92.80;;;;;;5035393;28;20061;-70
2023/05/16 08:43:21;;;;;;;5.95;3.38;;;14.40;92.90;;;;;;5048468;28;20516;-69
2023/05/16 08:45:46;;;;;;;3.97;2.72;;;14.40;93.00;;;;;;5046019;28;20406;-69
2023/05/16 08:48:14;;;;;;;5.30;2.70;;;14.40;93.00;;;;;;5026086;28;20053;-70
2023/05/16 08:50:41;;;;;;;4.53;3.13;;;14.50;93.10;;;;;;5038951;28;20053;-69
2023/05/16 08:53:09;;;;;;;4.82;2.15;;;14.50;93.00;;;;;;5044187;28;20514;-70
2023/05/16 08:55:35;;;;;;;6.10;2.42;;;14.50;93.00;;;;;;5045266;28;20099;-70
2023/05/16 08:58:03;;;;;;;6.70;2.25;;;14.50;93.00;;;;;;5028748;28;20513;-70
2023/05/16 09:00:30;;;;;;;6.07;2.35;;;14.60;92.80;;;;;;5043808;28;20485;-70
2023/05/16 09:02:56;;;;;;;3.00;1.67;;;14.50;92.80;;;;;;5043733;28;20148;-71
2023/05/16 09:05:23;;;;;;;6.88;2.20;;;14.60;92.70;;;;;;5027770;28;20049;-71
2023/05/16 09:07:49;;;;;;;3.70;2.22;;;14.60;92.70;;;;;;5046790;28;20036;-71
2023/05/16 09:10:15;;;;;;;13.45;3.40;;;14.60;92.60;;;;;;5041296;28;20033;-70
2023/05/16 09:12:42;;;;;;;5.20;2.50;;;14.70;92.50;;;;;;5027748;28;20506;-69
2023/05/16 09:15:09;;;;;;;3.83;2.50;;;14.70;92.30;;;;;;5044484;28;20107;-70
2023/05/16 09:17:37;;;;;;;4.68;1.92;;;14.70;92.40;;;;;;5040245;28;20071;-70
2023/05/16 09:20:10;;;;;;;4.28;1.98;;;14.80;92.40;;;;;;5044560;28;20037;-72
2023/05/16 09:22:37;;;;;;;5.20;2.13;;;14.80;92.30;;;;;;5039343;28;20041;-71
2023/05/16 09:25:03;;;;;;;2.88;2.08;;;14.80;92.20;;;;;;5030969;28;20088;-71
2023/05/16 09:27:30;;;;;;;4.22;1.90;;;14.90;92.20;;;;;;5015102;28;20550;-70
2023/05/16 09:29:57;;;;;;;6.03;2.70;;;14.80;92.00;;;;;;5046391;28;20025;-71
2023/05/16 09:32:24;;;;;;;5.10;2.20;;;14.80;92.00;;;;;;5041556;28;20037;-70
2023/05/16 09:34:52;;;;;;;3.67;1.75;;;14.80;92.10;;;;;;5045310;28;20072;-70
2023/05/16 09:37:18;;;;;;;4.68;1.92;;;14.90;92.00;;;;;;5043296;28;20032;-71
2023/05/16 09:39:49;;;;;;;7.63;1.80;;;14.90;91.90;;;;;;5025944;28;20068;-70
2023/05/16 09:42:16;;;;;;;8.10;2.25;;;14.90;91.90;;;;;;5035668;28;20507;-71
2023/05/16 09:44:53;;;;;;;7.35;2.70;;;15.00;91.90;;;;;;5026373;28;20056;-70
2023/05/16 09:47:20;;;;;;;9.00;2.95;;;14.90;91.70;;;;;;5046780;28;20032;-71
2023/05/16 09:49:50;;;;;;;5.82;1.50;;;15.00;91.80;;;;;;5042913;28;20026;-72
2023/05/16 09:52:16;;;;;;;81.60;12.23;;;15.00;91.40;;;;;;5040893;28;20124;-70
2023/05/16 09:54:42;;;;;;;28.17;6.00;;;14.90;91.40;;;;;;5025713;28;20572;-70
2023/05/16 09:57:09;;;;;;;14.55;3.05;;;14.90;91.30;;;;;;5046095;28;20045;-71
2023/05/16 09:59:38;;;;;;;10.10;2.55;;;14.90;91.60;;;;;;5041432;28;20041;-71
2023/05/16 10:02:06;;;;;;;4.47;1.90;;;15.00;91.40;;;;;;5043311;28;20151;-70
2023/05/16 10:04:35;;;;;;;6.15;2.50;;;15.10;91.40;;;;;;5049260;28;20152;-70
2023/05/16 10:07:08;;;;;;;9.80;3.05;;;15.10;91.30;;;;;;5039519;28;20120;-70
2023/05/16 10:09:38;;;;;;;5.43;1.95;;;15.10;91.20;;;;;;5043286;28;20029;-71
2023/05/16 10:12:07;;;;;;;4.13;1.83;;;15.20;91.10;;;;;;5028879;28;20140;-73
2023/05/16 10:14:35;;;;;;;5.20;2.08;;;15.20;91.00;;;;;;5047584;28;20045;-72
2023/05/16 10:17:03;;;;;;;3.17;1.73;;;15.20;90.90;;;;;;5049115;28;20494;-70
2023/05/16 10:19:31;;;;;;;8.38;1.95;;;15.00;90.90;;;;;;5049317;28;20037;-71
2023/05/16 10:21:59;;;;;;;4.60;2.35;;;15.00;91.00;;;;;;5047374;28;20040;-70
2023/05/16 10:24:42;;;;;;;6.82;2.40;;;15.00;91.10;;;;;;5047923;28;20416;-71
2023/05/16 10:27:08;;;;;;;4.60;2.22;;;15.00;91.10;;;;;;5045559;28;20057;-71
2023/05/16 10:29:36;;;;;;;6.15;1.83;;;15.00;91.20;;;;;;5045983;28;20070;-72
2023/05/16 10:32:03;;;;;;;6.72;2.22;;;15.00;91.10;;;;;;5044185;28;20123;-72
2023/05/16 10:34:29;;;;;;;3.85;2.10;;;15.10;91.20;;;;;;5048356;28;20086;-71
2023/05/16 10:36:55;;;;;;;5.25;2.47;;;15.20;91.20;;;;;;5052803;28;20041;-72
2023/05/16 10:39:21;;;;;;;5.88;2.17;;;15.20;91.30;;;;;;5043562;28;20041;-72
2023/05/16 10:41:48;;;;;;;7.47;3.17;;;15.40;91.40;;;;;;5046073;28;20543;-71
2023/05/16 10:44:17;;;;;;;5.65;2.92;;;15.60;91.20;;;;;;5046579;28;20045;-72
2023/05/16 10:46:43;;;;;;;5.90;2.47;;;15.70;91.00;;;;;;5047574;28;20131;-72
2023/05/16 10:49:22;;;;;;;5.93;2.10;;;15.70;90.90;;;;;;5049925;28;20036;-72
2023/05/16 10:52:16;;;;;;;6.57;2.47;;;15.80;90.70;;;;;;5029810;28;20128;-72
2023/05/16 10:54:50;;;;;;;4.80;2.28;;;15.80;90.60;;;;;;5046891;28;20041;-71
2023/05/16 10:57:21;;;;;;;7.28;2.33;;;15.80;90.40;;;;;;5042871;28;20037;-71
2023/05/16 10:59:49;;;;;;;7.93;2.38;;;15.60;90.40;;;;;;5045740;28;20037;-71
2023/05/16 11:02:24;;;;;;;5.13;2.50;;;15.40;90.50;;;;;;5029280;28;20075;-71
2023/05/16 11:04:58;;;;;;;7.05;2.88;;;15.30;90.70;;;;;;5047813;28;20410;-72
2023/05/16 11:07:25;;;;;;;6.65;2.15;;;15.20;90.50;;;;;;5046459;28;20060;-70
2023/05/16 11:10:06;;;;;;;10.73;2.60;;;14.90;90.40;;;;;;5029631;28;20095;-72
2023/05/16 11:12:48;;;;;;;6.72;3.00;;;14.90;90.80;;;;;;5026867;28;20518;-72
2023/05/16 11:15:26;;;;;;;8.32;2.28;;;14.80;90.30;;;;;;5048498;28;20036;-71
2023/05/16 11:18:07;;;;;;;9.52;2.30;;;14.80;90.60;;;;;;5047458;28;20580;-72
2023/05/16 11:20:35;;;;;;;7.60;3.10;;;14.90;90.60;;;;;;5039382;28;20076;-72
2023/05/16 11:23:16;;;;;;;7.35;2.42;;;15.00;90.70;;;;;;5055137;28;20064;-72
2023/05/16 11:25:44;;;;;;;6.70;2.08;;;15.20;90.60;;;;;;5041842;28;20487;-71
2023/05/16 11:28:12;;;;;;;5.95;2.33;;;15.30;90.30;;;;;;5046087;28;20127;-72
2023/05/16 11:30:47;;;;;;;5.55;2.55;;;15.40;90.00;;;;;;5046626;28;20041;-72
2023/05/16 11:33:13;;;;;;;3.67;2.10;;;15.50;89.50;;;;;;5048061;28;20409;-72
2023/05/16 11:35:39;;;;;;;11.30;2.88;;;15.60;88.90;;;;;;5046280;28;20128;-72
2023/05/16 11:38:05;;;;;;;7.10;2.25;;;15.60;89.00;;;;;;5048002;28;20150;-71
2023/05/16 11:40:30;;;;;;;5.00;2.20;;;15.70;89.00;;;;;;5049258;28;20060;-70
2023/05/16 11:43:02;;;;;;;6.78;2.88;;;15.70;88.90;;;;;;5028588;28;20033;-71
2023/05/16 11:45:28;;;;;;;7.70;2.50;;;15.80;88.40;;;;;;5035923;28;20569;-72
2023/05/16 11:47:53;;;;;;;8.07;3.00;;;15.80;88.10;;;;;;5027553;28;20076;-72
2023/05/16 11:50:22;;;;;;;14.85;7.43;;;15.80;87.80;;;;;;5038086;28;20037;-71
2023/05/16 11:52:56;;;;;;;7.07;2.75;;;15.80;87.90;;;;;;5048535;28;20386;-73
2023/05/16 11:55:31;;;;;;;8.52;2.90;;;15.80;87.30;;;;;;5046064;28;20045;-73
2023/05/16 11:57:57;;;;;;;7.55;2.70;;;15.90;86.70;;;;;;5029303;28;20037;-71
2023/05/16 12:00:25;;;;;;;7.70;2.53;;;16.00;87.20;;;;;;5038540;28;20386;-72
2023/05/16 12:03:00;;;;;;;7.45;2.20;;;16.30;86.50;;;;;;5042984;28;20040;-72
2023/05/16 12:05:27;;;;;;;7.32;2.38;;;16.40;85.90;;;;;;5040087;28;20073;-72
2023/05/16 12:07:53;;;;;;;6.68;1.80;;;16.60;85.70;;;;;;5046302;28;20478;-71
2023/05/16 12:10:19;;;;;;;6.03;1.80;;;16.70;85.00;;;;;;5045058;28;20071;-72
2023/05/16 12:12:53;;;;;;;6.15;2.30;;;16.80;84.40;;;;;;5045575;28;20043;-72
2023/05/16 12:15:19;;;;;;;5.13;1.98;;;16.90;84.00;;;;;;5048440;28;20120;-73
2023/05/16 12:17:46;;;;;;;3.25;1.85;;;16.90;83.90;;;;;;5047764;28;20433;-74
2023/05/16 12:20:15;;;;;;;5.78;2.38;;;16.90;83.70;;;;;;5041897;28;20044;-73
2023/05/16 12:22:42;;;;;;;5.78;1.95;;;16.90;83.50;;;;;;5043151;28;20033;-73
2023/05/16 12:25:30;;;;;;;7.80;2.55;;;17.00;83.10;;;;;;5041246;28;20041;-73
2023/05/16 12:27:58;;;;;;;6.05;2.00;;;17.00;83.10;;;;;;5034998;28;20049;-73
2023/05/16 12:30:25;;;;;;;5.25;2.03;;;17.00;82.40;;;;;;5029563;28;20033;-70
2023/05/16 12:33:11;;;;;;;6.18;1.63;;;17.00;81.90;;;;;;5032286;28;20296;-73
2023/05/16 12:35:39;;;;;;;10.45;3.00;;;16.90;80.40;;;;;;5048244;28;20040;-71
2023/05/16 12:38:09;;;;;;;6.20;2.40;;;16.90;81.60;;;;;;5039324;28;20371;-71
2023/05/16 12:40:40;;;;;;;7.13;2.20;;;16.90;81.70;;;;;;5044030;28;20073;-73
2023/05/16 12:43:21;;;;;;;10.07;2.55;;;17.00;81.70;;;;;;5049254;28;20049;-72